createdAt,value
2023-03-04T00:00:36.961Z,27.37
2023-03-04T00:03:05.016Z,28.97
2023-03-04T00:05:33.551Z,23.00
2023-03-04T00:08:01.549Z,27.23
2023-03-04T00:10:29.614Z,25.70
2023-03-04T00:12:57.664Z,28.80
2023-03-04T00:15:27.124Z,26.70
2023-03-04T00:17:55.201Z,26.20
2023-03-04T00:20:23.369Z,23.27
2023-03-04T00:22:51.807Z,23.33
2023-03-04T00:25:19.900Z,23.83
2023-03-04T00:27:48.172Z,28.13
2023-03-04T00:30:16.468Z,27.43
2023-03-04T00:32:45.872Z,28.37
2023-03-04T00:35:14.060Z,32.60
2023-03-04T00:37:42.170Z,28.93
2023-03-04T00:40:12.430Z,30.47
2023-03-04T00:42:40.492Z,21.90
2023-03-04T00:45:10.274Z,27.50
2023-03-04T00:47:38.291Z,32.67
2023-03-04T00:50:08.746Z,20.40
2023-03-04T00:52:36.764Z,27.77
2023-03-04T00:55:05.529Z,29.10
2023-03-04T00:57:33.737Z,29.03
2023-03-04T01:00:01.904Z,29.43
2023-03-04T01:02:30.148Z,37.63
2023-03-04T01:04:58.261Z,28.03
2023-03-04T01:07:27.600Z,37.43
2023-03-04T01:09:55.810Z,28.50
2023-03-04T01:12:23.795Z,25.17
2023-03-04T01:14:51.919Z,21.90
2023-03-04T01:17:19.918Z,26.53
2023-03-04T01:19:49.356Z,21.37
2023-03-04T01:22:19.048Z,25.77
2023-03-04T01:24:50.461Z,29.63
2023-03-04T01:27:18.483Z,24.03
2023-03-04T01:29:46.455Z,22.00
2023-03-04T01:32:14.460Z,22.60
2023-03-04T01:34:43.478Z,21.07
2023-03-04T01:37:13.561Z,25.03
2023-03-04T01:39:41.616Z,19.73
2023-03-04T01:42:19.065Z,25.80
2023-03-04T01:44:48.252Z,25.53
2023-03-04T01:47:17.400Z,24.67
2023-03-04T01:49:45.681Z,22.37
2023-03-04T01:52:14.538Z,19.97
2023-03-04T01:54:42.867Z,24.83
2023-03-04T01:57:19.858Z,22.50
2023-03-04T01:59:49.029Z,26.70
2023-03-04T02:02:18.471Z,19.53
2023-03-04T02:04:46.577Z,21.73
2023-03-04T02:07:14.624Z,21.53
2023-03-04T02:09:42.655Z,22.00
2023-03-04T02:12:14.345Z,22.10
2023-03-04T02:14:44.251Z,20.40
2023-03-04T02:17:13.187Z,21.10
2023-03-04T02:19:49.826Z,19.17
2023-03-04T02:22:17.947Z,24.47
2023-03-04T02:24:51.044Z,21.07
2023-03-04T02:27:22.109Z,17.27
2023-03-04T02:29:50.720Z,24.00
2023-03-04T02:32:18.912Z,19.43
2023-03-04T02:34:49.121Z,19.00
2023-03-04T02:37:18.056Z,19.97
2023-03-04T02:39:47.856Z,22.00
2023-03-04T02:42:15.893Z,18.17
2023-03-04T02:44:49.097Z,17.63
2023-03-04T02:47:19.986Z,18.67
2023-03-04T02:49:49.789Z,22.90
2023-03-04T02:52:20.635Z,17.87
2023-03-04T02:54:49.005Z,17.70
2023-03-04T02:57:18.492Z,19.20
2023-03-04T02:59:51.637Z,18.10
2023-03-04T03:02:23.131Z,16.43
2023-03-04T03:04:52.244Z,17.60
2023-03-04T03:07:21.863Z,19.20
2023-03-04T03:09:50.498Z,13.13
2023-03-04T03:12:19.710Z,17.50
2023-03-04T03:14:47.865Z,19.43
2023-03-04T03:17:20.622Z,20.20
2023-03-04T03:19:48.698Z,15.03
2023-03-04T03:22:17.398Z,23.30
2023-03-04T03:24:45.669Z,18.53
2023-03-04T03:27:13.704Z,16.77
2023-03-04T03:29:41.746Z,19.27
2023-03-04T03:32:10.231Z,16.27
2023-03-04T03:34:40.716Z,18.10
2023-03-04T03:37:09.957Z,17.17
2023-03-04T03:39:37.947Z,23.80
2023-03-04T03:42:06.063Z,20.23
2023-03-04T03:44:34.170Z,18.00
2023-03-04T03:47:02.367Z,19.40
2023-03-04T03:49:30.386Z,23.20
2023-03-04T03:51:59.724Z,19.37
2023-03-04T03:54:27.741Z,13.17
2023-03-04T03:56:55.743Z,18.70
2023-03-04T03:59:24.654Z,20.00
2023-03-04T04:01:52.829Z,19.83
2023-03-04T04:04:21.047Z,19.17
2023-03-04T04:06:49.103Z,18.87
2023-03-04T04:09:18.465Z,17.70
2023-03-04T04:11:46.506Z,18.30
2023-03-04T04:14:15.006Z,17.90
2023-03-04T04:16:43.523Z,16.90
2023-03-04T04:19:17.869Z,23.27
2023-03-04T04:21:46.295Z,20.47
2023-03-04T04:24:14.761Z,20.10
2023-03-04T04:26:44.451Z,18.13
2023-03-04T04:29:14.948Z,22.03
2023-03-04T04:31:43.045Z,19.37
2023-03-04T04:34:11.065Z,17.83
2023-03-04T04:36:39.288Z,21.67
2023-03-04T04:39:07.340Z,19.67
2023-03-04T04:41:38.888Z,17.07
2023-03-04T04:44:09.278Z,23.70
2023-03-04T04:46:37.671Z,19.10
2023-03-04T04:49:06.628Z,21.73
2023-03-04T04:51:36.053Z,15.30
2023-03-04T04:54:04.467Z,19.40
2023-03-04T04:56:32.543Z,22.70
2023-03-04T04:59:02.853Z,18.00
2023-03-04T05:01:32.522Z,22.33
2023-03-04T05:04:00.553Z,17.10
2023-03-04T05:06:29.080Z,18.77
2023-03-04T05:08:57.114Z,19.17
2023-03-04T05:11:25.187Z,21.70
2023-03-04T05:13:53.210Z,18.97
2023-03-04T05:16:21.255Z,19.17
2023-03-04T05:18:50.637Z,17.57
2023-03-04T05:21:18.700Z,16.83
2023-03-04T05:23:46.840Z,18.23
2023-03-04T05:26:16.954Z,20.60
2023-03-04T05:28:45.161Z,16.63
2023-03-04T05:31:13.358Z,19.80
2023-03-04T05:33:41.881Z,19.27
2023-03-04T05:36:11.677Z,18.93
2023-03-04T05:38:40.141Z,19.90
2023-03-04T05:41:08.630Z,19.83
2023-03-04T05:43:38.319Z,17.20
2023-03-04T05:46:06.843Z,23.00
2023-03-04T05:48:34.909Z,15.47
2023-03-04T05:51:03.315Z,18.87
2023-03-04T05:53:32.793Z,17.50
2023-03-04T05:56:00.789Z,19.07
2023-03-04T05:58:28.794Z,16.43
2023-03-04T06:01:00.618Z,17.20
2023-03-04T06:03:28.700Z,15.80
2023-03-04T06:05:57.091Z,20.60
2023-03-04T06:08:25.201Z,17.90
2023-03-04T06:10:56.563Z,15.20
2023-03-04T06:13:24.836Z,21.30
2023-03-04T06:15:55.953Z,14.20
2023-03-04T06:18:24.364Z,18.10
2023-03-04T06:20:56.218Z,17.57
2023-03-04T06:23:24.219Z,13.87
2023-03-04T06:25:55.082Z,19.73
2023-03-04T06:28:23.542Z,16.43
2023-03-04T06:30:53.684Z,20.53
2023-03-04T06:33:22.229Z,15.37
2023-03-04T06:35:50.290Z,17.70
2023-03-04T06:38:18.328Z,18.20
2023-03-04T06:40:46.324Z,18.43
2023-03-04T06:43:15.665Z,15.33
2023-03-04T06:45:43.677Z,15.33
2023-03-04T06:48:11.754Z,14.70
2023-03-04T06:50:41.341Z,16.60
2023-03-04T06:53:09.377Z,19.53
2023-03-04T06:55:37.506Z,20.73
2023-03-04T06:58:05.684Z,17.17
2023-03-04T07:00:35.187Z,20.73
2023-03-04T07:03:03.181Z,13.80
2023-03-04T07:05:31.440Z,20.37
2023-03-04T07:07:59.412Z,16.50
2023-03-04T07:10:27.400Z,22.50
2023-03-04T07:12:55.425Z,15.00
2023-03-04T07:15:23.441Z,13.03
2023-03-04T07:17:52.804Z,15.77
2023-03-04T07:20:20.944Z,14.60
2023-03-04T07:22:48.905Z,24.80
2023-03-04T07:25:17.917Z,18.07
2023-03-04T07:27:45.915Z,16.27
2023-03-04T07:30:14.982Z,16.33
2023-03-04T07:32:42.997Z,14.37
2023-03-04T07:35:12.538Z,16.97
2023-03-04T07:37:41.174Z,22.97
2023-03-04T07:40:11.059Z,19.93
2023-03-04T07:42:39.065Z,16.33
2023-03-04T07:45:12.636Z,9.30
2023-03-04T07:47:41.390Z,22.23
2023-03-04T07:50:12.704Z,15.30
2023-03-04T07:52:41.142Z,18.50
2023-03-04T07:55:10.091Z,19.27
2023-03-04T07:57:39.812Z,18.17
2023-03-04T08:00:09.306Z,18.80
2023-03-04T08:02:40.524Z,15.53
2023-03-04T08:05:09.308Z,19.50
2023-03-04T08:07:38.785Z,16.53
2023-03-04T08:10:08.216Z,12.90
2023-03-04T08:12:36.600Z,15.83
2023-03-04T08:15:05.539Z,12.67
2023-03-04T08:17:33.866Z,15.13
2023-03-04T08:20:02.033Z,12.07
2023-03-04T08:22:30.045Z,15.37
2023-03-04T08:24:59.392Z,21.43
2023-03-04T08:27:27.400Z,17.60
2023-03-04T08:29:55.389Z,16.37
2023-03-04T08:32:23.726Z,13.57
2023-03-04T08:34:51.841Z,16.10
2023-03-04T08:37:19.852Z,18.03
2023-03-04T08:39:47.878Z,12.67
2023-03-04T08:42:17.280Z,10.97
2023-03-04T08:44:45.383Z,14.83
2023-03-04T08:47:13.659Z,12.03
2023-03-04T08:49:41.671Z,15.13
2023-03-04T08:52:09.701Z,23.53
2023-03-04T08:54:37.700Z,13.83
2023-03-04T08:57:07.739Z,15.73
2023-03-04T08:59:38.443Z,16.10
2023-03-04T09:02:06.806Z,18.47
2023-03-04T09:04:34.968Z,16.70
2023-03-04T09:07:03.026Z,15.60
2023-03-04T09:09:31.074Z,12.80
2023-03-04T09:11:59.154Z,17.47
2023-03-04T09:14:27.290Z,13.57
2023-03-04T09:16:56.623Z,20.17
2023-03-04T09:19:25.012Z,15.23
2023-03-04T09:21:53.053Z,14.40
2023-03-04T09:24:21.066Z,15.93
2023-03-04T09:26:51.844Z,15.00
2023-03-04T09:29:20.055Z,18.90
2023-03-04T09:31:48.107Z,18.73
2023-03-04T09:34:17.476Z,9.60
2023-03-04T09:36:45.590Z,13.00
2023-03-04T09:39:13.637Z,15.07
2023-03-04T09:41:44.600Z,9.87
2023-03-04T09:44:23.343Z,14.60
2023-03-04T09:46:52.282Z,11.07
2023-03-04T09:49:22.911Z,10.10
2023-03-04T09:51:57.810Z,14.10
2023-03-04T09:54:37.825Z,13.67
2023-03-04T09:57:21.950Z,9.93
2023-03-04T09:59:55.727Z,13.30
2023-03-04T10:02:29.933Z,5.80
2023-03-04T10:05:03.509Z,11.50
2023-03-04T10:07:36.803Z,7.27
2023-03-04T10:10:08.281Z,10.77
2023-03-04T10:12:40.281Z,20.23
2023-03-04T10:15:22.421Z,9.40
2023-03-04T10:17:55.337Z,10.23
2023-03-04T10:20:27.517Z,8.33
2023-03-04T10:23:00.420Z,11.77
2023-03-04T10:25:30.286Z,9.33
2023-03-04T10:28:02.433Z,13.50
2023-03-04T10:30:41.840Z,7.80
2023-03-04T10:33:15.376Z,10.60
2023-03-04T10:35:47.273Z,15.53
2023-03-04T10:38:16.370Z,9.57
2023-03-04T10:40:45.920Z,7.20
2023-03-04T10:43:18.744Z,4.40
2023-03-04T10:45:47.321Z,19.87
2023-03-04T10:48:21.808Z,12.57
2023-03-04T10:50:51.399Z,15.20
2023-03-04T10:53:34.406Z,10.53
2023-03-04T10:56:03.118Z,13.73
2023-03-04T10:58:31.199Z,9.30
2023-03-04T11:01:05.408Z,14.67
2023-03-04T11:03:36.631Z,9.37
2023-03-04T11:06:17.508Z,7.63
2023-03-04T11:08:47.554Z,11.30
2023-03-04T11:11:29.888Z,6.27
2023-03-04T11:14:01.540Z,9.27
2023-03-04T11:16:31.987Z,4.80
2023-03-04T11:19:05.406Z,8.50
2023-03-04T11:21:40.622Z,10.03
2023-03-04T11:24:27.502Z,10.23
2023-03-04T11:27:02.754Z,7.10
2023-03-04T11:29:35.152Z,10.00
2023-03-04T11:32:10.810Z,8.37
2023-03-04T11:34:43.538Z,5.87
2023-03-04T11:37:19.841Z,7.90
2023-03-04T11:39:52.877Z,9.77
2023-03-04T11:42:29.320Z,4.60
2023-03-04T11:44:57.610Z,4.60
2023-03-04T11:47:43.122Z,25.37
2023-03-04T11:50:36.016Z,4.80
2023-03-04T11:53:18.726Z,4.40
2023-03-04T11:55:51.974Z,6.40
2023-03-04T11:58:46.079Z,7.33
2023-03-04T12:01:20.728Z,7.23
2023-03-04T12:04:05.455Z,5.13
2023-03-04T12:06:43.258Z,3.60
2023-03-04T12:09:26.101Z,4.47
2023-03-04T12:12:03.399Z,4.53
2023-03-04T12:14:39.160Z,7.13
2023-03-04T12:17:37.745Z,4.30
2023-03-04T12:20:25.237Z,3.57
2023-03-04T12:22:59.369Z,3.30
2023-03-04T12:25:46.706Z,8.43
2023-03-04T12:28:32.697Z,3.63
2023-03-04T12:31:19.039Z,6.53
2023-03-04T12:34:00.007Z,9.10
2023-03-04T12:36:40.327Z,6.90
2023-03-04T12:39:26.628Z,1.63
2023-03-04T12:42:04.496Z,5.17
2023-03-04T12:44:35.591Z,3.70
2023-03-04T12:47:22.602Z,3.30
2023-03-04T12:50:01.377Z,2.90
2023-03-04T12:52:42.543Z,3.40
2023-03-04T12:55:13.955Z,2.80
2023-03-04T12:57:44.239Z,3.60
2023-03-04T13:00:23.116Z,3.80
2023-03-04T13:03:04.908Z,2.40
2023-03-04T13:06:00.682Z,2.23
2023-03-04T13:08:37.542Z,2.57
2023-03-04T13:11:49.422Z,2.80
2023-03-04T13:14:28.018Z,4.33
2023-03-04T13:16:59.126Z,6.73
2023-03-04T13:19:50.918Z,4.40
2023-03-04T13:22:43.446Z,1.73
2023-03-04T13:25:33.657Z,11.47
2023-03-04T13:28:27.459Z,4.80
2023-03-04T13:31:26.596Z,7.20
2023-03-04T13:34:02.774Z,4.50
2023-03-04T13:36:54.883Z,6.23
2023-03-04T13:39:31.542Z,6.53
2023-03-04T13:42:01.047Z,4.57
2023-03-04T13:45:00.188Z,4.20
2023-03-04T13:47:34.576Z,4.40
2023-03-04T13:50:23.999Z,6.67
2023-03-04T13:52:52.735Z,6.70
2023-03-04T13:55:37.864Z,5.83
2023-03-04T13:58:19.282Z,4.80
2023-03-04T14:00:53.421Z,3.67
2023-03-04T14:03:25.382Z,4.43
2023-03-04T14:06:16.658Z,6.53
2023-03-04T14:08:45.130Z,6.80
2023-03-04T14:11:16.475Z,5.53
2023-03-04T14:13:45.138Z,7.07
2023-03-04T14:16:13.315Z,8.43
2023-03-04T14:18:43.199Z,8.70
2023-03-04T14:21:16.745Z,5.90
2023-03-04T14:23:44.834Z,7.60
2023-03-04T14:26:14.646Z,7.00
2023-03-04T14:28:47.491Z,11.90
2023-03-04T14:31:21.350Z,7.40
2023-03-04T14:33:53.992Z,4.33
2023-03-04T14:36:24.129Z,4.00
2023-03-04T14:38:55.646Z,2.83
2023-03-04T14:41:28.281Z,4.50
2023-03-04T14:44:03.118Z,4.67
2023-03-04T14:46:35.587Z,6.00
2023-03-04T14:49:05.714Z,4.47
2023-03-04T14:51:41.517Z,4.30
2023-03-04T14:54:34.613Z,5.47
2023-03-04T14:57:21.491Z,4.10
2023-03-04T14:59:49.531Z,3.33
2023-03-04T15:02:30.850Z,5.47
2023-03-04T15:05:02.924Z,6.93
2023-03-04T15:07:34.452Z,5.23
2023-03-04T15:10:05.517Z,11.60
2023-03-04T15:12:36.180Z,2.30
2023-03-04T15:15:05.812Z,4.00
2023-03-04T15:17:38.634Z,4.37
2023-03-04T15:20:25.875Z,4.73
2023-03-04T15:23:02.573Z,2.93
2023-03-04T15:25:31.430Z,5.70
2023-03-04T15:28:02.248Z,2.00
2023-03-04T15:30:32.566Z,6.33
2023-03-04T15:33:01.518Z,5.37
2023-03-04T15:35:34.031Z,3.93
2023-03-04T15:38:02.406Z,5.90
2023-03-04T15:40:32.915Z,10.27
2023-03-04T15:43:03.263Z,2.13
2023-03-04T15:45:35.910Z,2.70
2023-03-04T15:48:07.685Z,2.90
2023-03-04T15:50:39.299Z,4.83
2023-03-04T15:53:09.520Z,8.10
2023-03-04T15:55:37.727Z,3.57
2023-03-04T15:58:06.536Z,2.90
2023-03-04T16:00:34.613Z,4.97
2023-03-04T16:03:02.810Z,2.17
2023-03-04T16:05:30.978Z,3.30
2023-03-04T16:08:00.438Z,3.53
2023-03-04T16:10:30.694Z,3.43
2023-03-04T16:12:58.706Z,2.60
2023-03-04T16:15:29.829Z,2.10
2023-03-04T16:17:59.608Z,4.83
2023-03-04T16:20:30.563Z,2.90
2023-03-04T16:23:02.125Z,3.33
2023-03-04T16:25:31.142Z,3.50
2023-03-04T16:28:03.943Z,3.30
2023-03-04T16:30:32.532Z,4.30
2023-03-04T16:33:00.506Z,4.07
2023-03-04T16:35:29.173Z,4.80
2023-03-04T16:37:58.498Z,4.50
2023-03-04T16:40:29.693Z,7.13
2023-03-04T16:42:57.958Z,5.20
2023-03-04T16:45:30.147Z,5.63
2023-03-04T16:47:58.352Z,5.10
2023-03-04T16:50:29.961Z,5.23
2023-03-04T16:52:58.273Z,8.13
2023-03-04T16:55:30.010Z,6.77
2023-03-04T16:57:58.956Z,7.00
2023-03-04T17:00:29.955Z,7.30
2023-03-04T17:03:00.000Z,9.90
2023-03-04T17:05:30.940Z,7.93
2023-03-04T17:07:59.307Z,7.33
2023-03-04T17:10:28.697Z,6.10
2023-03-04T17:12:56.796Z,7.20
2023-03-04T17:15:24.882Z,5.53
2023-03-04T17:17:54.106Z,7.57
2023-03-04T17:20:22.829Z,9.57
2023-03-04T17:22:50.847Z,9.27
2023-03-04T17:25:18.998Z,9.53
2023-03-04T17:27:48.388Z,8.47
2023-03-04T17:30:16.884Z,10.57
2023-03-04T17:32:45.078Z,9.10
2023-03-04T17:35:13.296Z,11.03
2023-03-04T17:37:41.589Z,9.50
2023-03-04T17:40:14.074Z,9.73
2023-03-04T17:42:42.229Z,10.03
2023-03-04T17:45:12.549Z,8.17
2023-03-04T17:47:40.649Z,8.47
2023-03-04T17:50:09.763Z,9.70
2023-03-04T17:52:38.036Z,7.00
2023-03-04T17:55:06.821Z,8.37
2023-03-04T17:57:37.113Z,7.67
2023-03-04T18:00:06.388Z,7.80
2023-03-04T18:02:35.745Z,8.23
2023-03-04T18:05:06.674Z,7.03
2023-03-04T18:07:34.746Z,6.00
2023-03-04T18:10:02.785Z,7.97
2023-03-04T18:12:31.078Z,8.10
2023-03-04T18:14:59.126Z,11.60
2023-03-04T18:17:27.594Z,13.07
2023-03-04T18:19:57.500Z,8.50
2023-03-04T18:22:25.534Z,7.77
2023-03-04T18:24:53.559Z,7.20
2023-03-04T18:27:21.602Z,8.53
2023-03-04T18:29:49.616Z,14.13
2023-03-04T18:32:17.644Z,8.00
2023-03-04T18:34:45.646Z,10.50
2023-03-04T18:37:15.105Z,10.80
2023-03-04T18:39:43.087Z,9.77
2023-03-04T18:42:11.257Z,10.93
2023-03-04T18:44:39.454Z,9.90
2023-03-04T18:47:07.953Z,8.27
2023-03-04T18:49:36.174Z,9.10
2023-03-04T18:52:04.224Z,14.07
2023-03-04T18:54:33.612Z,7.73
2023-03-04T18:57:07.291Z,6.10
2023-03-04T18:59:38.975Z,8.13
2023-03-04T19:02:15.339Z,11.23
2023-03-04T19:04:43.462Z,8.77
2023-03-04T19:07:11.472Z,8.43
2023-03-04T19:09:40.896Z,5.47
2023-03-04T19:12:09.081Z,6.70
2023-03-04T19:14:37.236Z,7.77
2023-03-04T19:17:05.298Z,11.40
2023-03-04T19:19:34.175Z,7.90
2023-03-04T19:22:02.195Z,5.73
2023-03-04T19:24:30.220Z,9.80
2023-03-04T19:26:59.649Z,5.63
2023-03-04T19:29:28.468Z,5.87
2023-03-04T19:31:56.533Z,6.77
2023-03-04T19:34:24.555Z,9.80
2023-03-04T19:36:52.604Z,7.57
2023-03-04T19:39:20.636Z,6.43
2023-03-04T19:41:48.699Z,6.20
2023-03-04T19:44:18.394Z,8.13
2023-03-04T19:46:46.439Z,7.43
2023-03-04T19:49:14.450Z,6.40
2023-03-04T19:51:42.850Z,6.47
2023-03-04T19:54:10.970Z,9.67
2023-03-04T19:56:39.084Z,7.03
2023-03-04T19:59:07.056Z,5.90
2023-03-04T20:01:38.636Z,6.30
2023-03-04T20:04:09.108Z,6.90
2023-03-04T20:06:38.535Z,10.17
2023-03-04T20:09:06.913Z,11.17
2023-03-04T20:11:41.477Z,9.63
2023-03-04T20:14:18.971Z,7.70
2023-03-04T20:16:48.359Z,11.27
2023-03-04T20:19:16.336Z,6.80
2023-03-04T20:21:45.174Z,6.13
2023-03-04T20:24:14.927Z,10.63
2023-03-04T20:26:43.135Z,6.27
2023-03-04T20:29:11.172Z,7.60
2023-03-04T20:31:39.929Z,11.83
2023-03-04T20:34:09.607Z,9.80
2023-03-04T20:36:38.954Z,7.93
2023-03-04T20:39:18.303Z,8.77
2023-03-04T20:41:53.733Z,6.87
2023-03-04T20:44:21.780Z,11.50
2023-03-04T20:46:49.926Z,9.50
2023-03-04T20:49:23.259Z,9.60
2023-03-04T20:51:51.707Z,8.50
2023-03-04T20:54:20.353Z,9.13
2023-03-04T20:56:48.808Z,8.57
2023-03-04T20:59:17.476Z,8.63
2023-03-04T21:01:47.781Z,7.13
2023-03-04T21:04:16.395Z,12.63
2023-03-04T21:06:47.361Z,8.67
2023-03-04T21:09:17.561Z,8.17
2023-03-04T21:11:45.909Z,8.70
2023-03-04T21:14:16.407Z,10.63
2023-03-04T21:16:44.685Z,6.13
2023-03-04T21:19:16.875Z,9.10
2023-03-04T21:21:47.506Z,9.90
2023-03-04T21:24:17.451Z,9.63
2023-03-04T21:26:47.586Z,8.63
2023-03-04T21:29:16.915Z,9.67
2023-03-04T21:31:47.041Z,8.40
2023-03-04T21:34:18.051Z,7.83
2023-03-04T21:36:47.634Z,9.27
2023-03-04T21:39:17.632Z,6.83
2023-03-04T21:41:45.857Z,10.23
2023-03-04T21:44:23.074Z,8.20
2023-03-04T21:46:56.788Z,9.57
2023-03-04T21:49:24.962Z,9.07
2023-03-04T21:51:54.335Z,8.70
2023-03-04T21:54:23.025Z,8.70
2023-03-04T21:56:51.072Z,9.07
2023-03-04T21:59:19.320Z,13.57
2023-03-04T22:01:47.611Z,8.83
2023-03-04T22:04:16.122Z,16.43
2023-03-04T22:06:44.442Z,8.73
2023-03-04T22:09:14.467Z,11.33
2023-03-04T22:11:42.515Z,8.43
2023-03-04T22:14:12.276Z,10.80
2023-03-04T22:16:54.048Z,9.33
2023-03-04T22:19:22.828Z,9.80
2023-03-04T22:21:52.345Z,10.40
2023-03-04T22:24:22.393Z,10.90
2023-03-04T22:26:50.594Z,9.47
2023-03-04T22:29:18.808Z,13.57
2023-03-04T22:31:47.405Z,8.90
2023-03-04T22:34:16.727Z,12.30
2023-03-04T22:36:46.447Z,13.13
2023-03-04T22:39:16.938Z,10.93
2023-03-04T22:41:46.574Z,13.57
2023-03-04T22:44:15.244Z,14.27
2023-03-04T22:46:43.847Z,13.73
2023-03-04T22:49:14.407Z,8.33
2023-03-04T22:51:43.999Z,11.40
2023-03-04T22:54:12.848Z,16.47
2023-03-04T22:56:40.991Z,11.40
2023-03-04T22:59:10.434Z,13.63
2023-03-04T23:01:38.553Z,13.47
2023-03-04T23:04:07.034Z,8.37
2023-03-04T23:06:35.305Z,8.10
2023-03-04T23:09:03.943Z,12.00
2023-03-04T23:11:35.256Z,10.70
2023-03-04T23:14:06.845Z,10.50
2023-03-04T23:16:40.941Z,8.90
2023-03-04T23:19:10.196Z,15.93
2023-03-04T23:21:39.245Z,10.60
2023-03-04T23:24:09.455Z,12.23
2023-03-04T23:26:39.665Z,8.63
2023-03-04T23:29:09.572Z,10.10
2023-03-04T23:31:39.067Z,9.77
2023-03-04T23:34:07.297Z,8.90
2023-03-04T23:36:37.035Z,8.77
2023-03-04T23:39:06.164Z,9.00
2023-03-04T23:41:35.254Z,7.50
2023-03-04T23:44:03.810Z,13.37
2023-03-04T23:46:32.016Z,21.27
2023-03-04T23:49:01.755Z,12.87
2023-03-04T23:51:30.857Z,7.07
2023-03-04T23:54:00.148Z,6.30
2023-03-04T23:56:30.425Z,9.40
2023-03-04T23:58:59.822Z,7.40
